Bergen, North Dakota
Current Conditions -  °F | °C
As of 11:54 AM on Thursday 23 Oct 2014 (Local Time) from KMOT Reporting Station
Clear Clear  
Wind Chill: 58°   Ceiling: Unl
Heat Index: 58°   Visibility: 10mi
Dew Point: 34°   Wind: 7mph
Humidity: 41%   Direction: 210°SSW
Pressure: 29.82"   Gusts: NA
Location:  47.9335°N, 100.777°W
Report Text: KMOT 231654Z 21006KT 10SM CLR 14/01 A2982 RMK AO2 SLP102 T01440011
Loading
Personal Weather Stations






























Interactive Weather Map
Tropical Storm Tracking
New forecast layout! Learn more

10-Day Weather Forecast

Advertisements
Track Severe Weather on mobile